Terminal Aerodrome Forecast
Issued by NWS

Home | Current Version | Previous Version | Text Only | Print | Product List | Glossary On
Versions: 1 2 3 4 5 6 7 8 9 10 11 12 13 14 15 16 17 18
434
FTUS44 KLZK 222338
TAFLLQ
TAF
KLLQ 222338Z 2300/2324 29009KT P6SM VCSH SCT020 OVC050
     FM230300 31007KT P6SM VCSH BKN020 OVC035
     FM230800 29007KT P6SM OVC030
      TEMPO 2308/2312 4SM BR SCT008 OVC020
     FM231500 31008KT P6SM OVC030
     FM231900 31010KT P6SM BKN040=

USA.gov is the U.S. government's official web portal to all federal, state and local government web resources and services.